createdAt,value
2017-10-24T00:00:18.016Z,3.70
2017-10-24T00:02:47.447Z,4.43
2017-10-24T00:05:14.926Z,3.53
2017-10-24T00:07:44.359Z,3.80
2017-10-24T00:10:11.835Z,4.10
2017-10-24T00:12:40.123Z,4.12
2017-10-24T00:15:08.009Z,4.07
2017-10-24T00:17:35.502Z,3.70
2017-10-24T00:20:02.983Z,3.85
2017-10-24T00:22:30.484Z,3.97
2017-10-24T00:24:57.967Z,3.58
2017-10-24T00:27:25.481Z,4.00
2017-10-24T00:29:53.358Z,3.92
2017-10-24T00:32:20.867Z,4.65
2017-10-24T00:34:48.351Z,4.30
2017-10-24T00:37:17.807Z,4.75
2017-10-24T00:39:45.290Z,3.50
2017-10-24T00:42:13.074Z,4.03
2017-10-24T00:44:40.555Z,4.55
2017-10-24T00:47:08.444Z,5.15
2017-10-24T00:49:35.939Z,4.90
2017-10-24T00:52:03.456Z,5.50
2017-10-24T00:54:30.952Z,5.43
2017-10-24T00:56:58.450Z,4.45
2017-10-24T00:59:26.356Z,5.18
2017-10-24T01:01:53.846Z,5.25
2017-10-24T01:04:21.348Z,5.22
2017-10-24T01:06:51.458Z,5.37
2017-10-24T01:09:18.948Z,5.30
2017-10-24T01:11:46.458Z,4.85
2017-10-24T01:14:14.347Z,5.68
2017-10-24T01:16:41.852Z,5.60
2017-10-24T01:19:09.344Z,5.78
2017-10-24T01:21:37.254Z,4.95
2017-10-24T01:24:04.735Z,5.47
2017-10-24T01:26:32.211Z,5.70
2017-10-24T01:28:59.713Z,5.57
2017-10-24T01:31:27.190Z,4.78
2017-10-24T01:33:54.695Z,5.43
2017-10-24T01:36:22.186Z,5.55
2017-10-24T01:38:49.693Z,5.80
2017-10-24T01:41:17.183Z,6.68
2017-10-24T01:43:45.058Z,5.03
2017-10-24T01:46:12.559Z,6.30
2017-10-24T01:48:40.100Z,6.05
2017-10-24T01:51:07.611Z,5.62
2017-10-24T01:53:35.099Z,5.68
2017-10-24T01:56:03.590Z,5.03
2017-10-24T01:58:31.079Z,6.70
2017-10-24T02:00:58.571Z,6.90
2017-10-24T02:03:26.084Z,6.68
2017-10-24T02:05:53.567Z,5.60
2017-10-24T02:08:21.076Z,6.37
2017-10-24T02:10:48.571Z,5.68
2017-10-24T02:13:16.075Z,5.90
2017-10-24T02:15:43.959Z,6.07
2017-10-24T02:18:11.453Z,6.05
2017-10-24T02:20:38.963Z,6.05
2017-10-24T02:23:06.442Z,6.12
2017-10-24T02:25:33.952Z,6.47
2017-10-24T02:28:01.432Z,5.65
2017-10-24T02:30:28.943Z,5.28
2017-10-24T02:32:56.437Z,6.25
2017-10-24T02:35:24.326Z,6.12
2017-10-24T02:37:52.759Z,7.55
2017-10-24T02:40:20.258Z,7.87
2017-10-24T02:42:47.795Z,7.12
2017-10-24T02:45:15.285Z,6.53
2017-10-24T02:47:42.786Z,6.68
2017-10-24T02:50:10.280Z,6.07
2017-10-24T02:52:38.174Z,6.82
2017-10-24T02:55:05.683Z,6.28
2017-10-24T02:57:33.172Z,7.20
2017-10-24T03:00:00.676Z,6.90
2017-10-24T03:02:28.154Z,6.70
2017-10-24T03:04:55.665Z,7.10
2017-10-24T03:07:23.151Z,6.68
2017-10-24T03:09:50.639Z,7.37
2017-10-24T03:12:18.542Z,6.80
2017-10-24T03:14:46.024Z,6.95
2017-10-24T03:17:13.523Z,6.80
2017-10-24T03:19:41.972Z,7.55
2017-10-24T03:22:09.467Z,5.57
2017-10-24T03:24:37.355Z,7.28
2017-10-24T03:27:04.855Z,7.35
2017-10-24T03:29:34.304Z,7.15
2017-10-24T03:32:02.201Z,7.35
2017-10-24T03:34:29.712Z,7.43
2017-10-24T03:36:58.137Z,8.68
2017-10-24T03:39:26.322Z,7.28
2017-10-24T03:41:54.743Z,7.50
2017-10-24T03:44:22.248Z,6.93
2017-10-24T03:46:49.735Z,8.82
2017-10-24T03:49:17.242Z,7.28
2017-10-24T03:51:45.156Z,9.10
2017-10-24T03:54:12.659Z,9.15
2017-10-24T03:56:40.553Z,7.97
2017-10-24T03:59:08.044Z,8.25
2017-10-24T04:01:35.556Z,7.72
2017-10-24T04:04:03.447Z,8.93
2017-10-24T04:06:30.962Z,9.07
2017-10-24T04:08:58.850Z,8.98
2017-10-24T04:11:26.354Z,9.15
2017-10-24T04:13:53.847Z,9.05
2017-10-24T04:16:21.760Z,8.05
2017-10-24T04:18:51.472Z,9.15
2017-10-24T04:21:18.968Z,8.45
2017-10-24T04:23:46.454Z,9.27
2017-10-24T04:26:14.450Z,9.23
2017-10-24T04:28:41.951Z,8.75
2017-10-24T04:31:10.346Z,8.55
2017-10-24T04:33:38.252Z,8.85
2017-10-24T04:36:05.746Z,9.27
2017-10-24T04:38:35.211Z,9.35
2017-10-24T04:41:02.711Z,9.90
2017-10-24T04:43:30.228Z,8.88
2017-10-24T04:45:58.654Z,8.48
2017-10-24T04:48:26.199Z,9.23
2017-10-24T04:50:55.395Z,10.73
2017-10-24T04:53:22.892Z,10.98
2017-10-24T04:55:50.790Z,8.88
2017-10-24T04:58:18.281Z,9.25
2017-10-24T05:00:45.802Z,9.77
2017-10-24T05:03:13.336Z,8.75
2017-10-24T05:05:41.236Z,9.05
2017-10-24T05:08:08.724Z,9.25
2017-10-24T05:10:36.230Z,10.30
2017-10-24T05:13:03.744Z,8.10
2017-10-24T05:15:31.244Z,10.05
2017-10-24T05:17:59.157Z,8.65
2017-10-24T05:20:26.656Z,10.18
2017-10-24T05:22:56.504Z,9.27
2017-10-24T05:25:24.863Z,9.50
2017-10-24T05:27:52.773Z,9.05
2017-10-24T05:30:20.251Z,8.77
2017-10-24T05:32:47.769Z,8.70
2017-10-24T05:35:15.262Z,8.85
2017-10-24T05:37:43.708Z,7.90
2017-10-24T05:40:11.204Z,7.53
2017-10-24T05:42:39.741Z,9.38
2017-10-24T05:45:07.232Z,8.90
2017-10-24T05:47:34.754Z,7.90
2017-10-24T05:50:02.269Z,9.68
2017-10-24T05:52:53.476Z,7.68
2017-10-24T05:55:22.023Z,10.43
2017-10-24T05:57:49.517Z,8.75
2017-10-24T06:00:17.007Z,8.93
2017-10-24T06:02:44.952Z,7.75
2017-10-24T06:05:12.447Z,8.10
2017-10-24T06:07:39.955Z,9.13
2017-10-24T06:10:07.469Z,7.53
2017-10-24T06:12:34.976Z,8.70
2017-10-24T06:15:02.468Z,9.13
2017-10-24T06:17:29.983Z,8.10
2017-10-24T06:19:57.472Z,9.23
2017-10-24T06:22:25.374Z,7.78
2017-10-24T06:24:52.859Z,7.82
2017-10-24T06:27:20.351Z,9.75
2017-10-24T06:29:48.251Z,9.55
2017-10-24T06:32:16.707Z,8.82
2017-10-24T06:34:44.223Z,9.20
2017-10-24T06:37:11.710Z,9.95
2017-10-24T06:39:41.227Z,10.00
2017-10-24T06:42:09.133Z,10.25
2017-10-24T06:44:36.667Z,10.10
2017-10-24T06:47:04.558Z,7.60
2017-10-24T06:49:32.091Z,8.25
2017-10-24T06:52:00.874Z,9.30
2017-10-24T06:54:28.815Z,8.70
2017-10-24T06:56:56.326Z,7.37
2017-10-24T06:59:23.850Z,9.27
2017-10-24T07:01:51.762Z,7.68
2017-10-24T07:04:19.636Z,7.85
2017-10-24T07:06:49.262Z,7.15
2017-10-24T07:09:16.771Z,8.27
2017-10-24T07:11:44.277Z,7.85
2017-10-24T07:14:11.870Z,8.73
2017-10-24T07:16:39.786Z,8.95
2017-10-24T07:19:07.276Z,9.90
2017-10-24T07:21:34.779Z,9.57
2017-10-24T07:24:02.279Z,8.48
2017-10-24T07:26:29.751Z,9.15
2017-10-24T07:28:57.280Z,9.75
2017-10-24T07:33:58.611Z,9.15
2017-10-24T07:36:26.099Z,9.95
2017-10-24T07:38:53.606Z,8.98
2017-10-24T07:41:22.987Z,9.80
2017-10-24T07:43:50.489Z,8.15
2017-10-24T07:46:17.995Z,9.27
2017-10-24T07:48:45.485Z,8.45
2017-10-24T07:51:13.400Z,9.38
2017-10-24T07:53:40.906Z,8.70
2017-10-24T07:56:08.529Z,9.85
2017-10-24T07:58:36.083Z,9.70
2017-10-24T08:01:03.584Z,9.05
2017-10-24T08:03:31.495Z,10.07
2017-10-24T08:06:00.972Z,10.10
2017-10-24T08:08:28.872Z,8.30
2017-10-24T08:10:56.384Z,8.90
2017-10-24T08:13:24.815Z,8.43
2017-10-24T08:15:52.323Z,9.57
2017-10-24T08:18:20.203Z,7.32
2017-10-24T08:20:48.082Z,8.05
2017-10-24T08:23:16.484Z,8.68
2017-10-24T08:25:43.970Z,9.35
2017-10-24T08:28:11.466Z,9.20
2017-10-24T08:30:39.356Z,9.43
2017-10-24T08:33:06.854Z,9.35
2017-10-24T08:35:34.354Z,8.73
2017-10-24T08:38:01.845Z,9.20
2017-10-24T08:40:29.367Z,7.47
2017-10-24T08:42:56.859Z,8.85
2017-10-24T08:45:24.359Z,8.25
2017-10-24T08:47:51.871Z,8.30
2017-10-24T08:50:19.363Z,8.50
2017-10-24T08:52:46.866Z,7.97
2017-10-24T08:55:14.372Z,8.13
2017-10-24T08:57:42.858Z,9.35
2017-10-24T09:00:10.392Z,7.00
2017-10-24T09:02:38.836Z,8.30
2017-10-24T09:05:06.734Z,8.18
2017-10-24T09:07:34.215Z,8.10
2017-10-24T09:10:01.742Z,8.68
2017-10-24T09:12:29.240Z,7.40
2017-10-24T09:14:58.679Z,7.25
2017-10-24T09:17:38.223Z,7.32
2017-10-24T09:20:08.079Z,7.43
2017-10-24T09:22:36.515Z,6.85
2017-10-24T09:25:06.381Z,6.72
2017-10-24T09:27:33.899Z,7.50
2017-10-24T09:30:01.414Z,7.10
2017-10-24T09:32:43.783Z,8.23
2017-10-24T09:35:11.312Z,7.60
2017-10-24T09:37:39.199Z,7.25
2017-10-24T09:40:06.732Z,6.97
2017-10-24T09:42:37.329Z,7.60
2017-10-24T09:45:04.826Z,6.75
2017-10-24T09:47:32.735Z,6.30
2017-10-24T09:50:00.225Z,6.62
2017-10-24T09:52:28.139Z,6.20
2017-10-24T09:54:55.629Z,5.50
2017-10-24T09:57:23.145Z,6.28
2017-10-24T09:59:50.626Z,5.82
2017-10-24T10:02:18.131Z,5.82
2017-10-24T10:04:45.643Z,5.32
2017-10-24T10:07:13.137Z,5.70
2017-10-24T10:09:40.658Z,5.68
2017-10-24T10:12:09.955Z,6.72
2017-10-24T10:14:39.795Z,5.15
2017-10-24T10:17:07.275Z,5.80
2017-10-24T10:19:34.760Z,4.90
2017-10-24T10:22:06.224Z,5.25
2017-10-24T10:24:36.396Z,5.10
2017-10-24T10:27:15.927Z,5.62
2017-10-24T10:29:43.435Z,4.40
2017-10-24T10:32:10.970Z,4.60
2017-10-24T10:34:38.488Z,4.37
2017-10-24T10:37:05.979Z,3.87
2017-10-24T10:39:53.925Z,3.58
2017-10-24T10:42:21.811Z,3.17
2017-10-24T10:44:49.410Z,3.50
2017-10-24T10:47:16.896Z,3.20
2017-10-24T10:49:44.412Z,3.90
2017-10-24T10:52:11.945Z,2.87
2017-10-24T10:54:39.462Z,3.05
2017-10-24T10:57:06.969Z,3.20
2017-10-24T10:59:34.488Z,3.33
2017-10-24T11:02:02.059Z,4.10
2017-10-24T11:04:29.949Z,3.05
2017-10-24T11:06:57.460Z,3.10
2017-10-24T11:09:24.957Z,3.45
2017-10-24T11:11:52.858Z,3.35
2017-10-24T11:14:20.410Z,3.22
2017-10-24T11:16:47.930Z,3.10
2017-10-24T11:19:15.824Z,3.62
2017-10-24T11:21:43.344Z,3.15
2017-10-24T11:24:10.830Z,3.10
2017-10-24T11:26:38.618Z,3.17
2017-10-24T11:29:06.124Z,2.72
2017-10-24T11:31:34.597Z,3.40
2017-10-24T11:34:02.114Z,3.28
2017-10-24T11:36:30.719Z,2.60
2017-10-24T11:38:58.224Z,3.28
2017-10-24T11:41:26.111Z,3.13
2017-10-24T11:43:53.622Z,3.12
2017-10-24T11:46:21.117Z,2.65
2017-10-24T11:48:48.636Z,3.33
2017-10-24T11:51:16.132Z,2.60
2017-10-24T11:53:43.620Z,2.65
2017-10-24T11:56:11.134Z,2.70
2017-10-24T11:58:39.028Z,2.25
2017-10-24T12:01:06.540Z,2.30
2017-10-24T12:03:34.979Z,2.10
2017-10-24T12:06:02.509Z,2.37
2017-10-24T12:08:30.401Z,1.95
2017-10-24T12:10:57.925Z,2.17
2017-10-24T12:13:25.820Z,2.37
2017-10-24T12:15:53.306Z,2.60
2017-10-24T12:18:20.818Z,2.35
2017-10-24T12:20:48.717Z,2.17
2017-10-24T12:23:16.247Z,1.58
2017-10-24T12:25:44.123Z,1.57
2017-10-24T12:28:11.636Z,1.45
2017-10-24T12:30:39.140Z,1.65
2017-10-24T12:33:06.651Z,1.73
2017-10-24T12:35:34.140Z,1.67
2017-10-24T12:38:02.019Z,1.27
2017-10-24T12:40:29.532Z,1.40
2017-10-24T12:42:57.031Z,1.20
2017-10-24T12:45:27.135Z,1.27
2017-10-24T12:47:55.018Z,1.40
2017-10-24T12:50:22.918Z,1.60
2017-10-24T12:52:50.447Z,1.45
2017-10-24T12:55:17.953Z,1.37
2017-10-24T12:57:46.379Z,1.30
2017-10-24T13:00:13.892Z,1.67
2017-10-24T13:02:41.379Z,1.35
2017-10-24T13:05:10.860Z,1.23
2017-10-24T13:07:38.399Z,1.52
2017-10-24T13:10:05.894Z,1.40
2017-10-24T13:12:33.802Z,1.30
2017-10-24T13:15:01.300Z,1.20
2017-10-24T13:17:28.815Z,1.33
2017-10-24T13:19:56.299Z,1.07
2017-10-24T13:22:23.803Z,1.10
2017-10-24T13:24:51.680Z,1.17
2017-10-24T13:27:20.503Z,0.90
2017-10-24T13:29:48.010Z,1.77
2017-10-24T13:32:15.541Z,1.70
2017-10-24T13:34:43.052Z,1.60
2017-10-24T13:37:10.592Z,1.50
2017-10-24T13:39:38.525Z,1.70
2017-10-24T13:42:07.595Z,1.70
2017-10-24T13:44:35.111Z,1.40
2017-10-24T13:47:03.022Z,1.20
2017-10-24T13:49:30.519Z,1.48
2017-10-24T13:51:58.019Z,1.40
2017-10-24T13:54:25.547Z,1.73
2017-10-24T13:56:53.052Z,1.17
2017-10-24T13:59:20.618Z,1.30
2017-10-24T14:01:48.155Z,1.80
2017-10-24T14:04:21.688Z,1.83
2017-10-24T14:06:54.926Z,1.70
2017-10-24T14:09:28.108Z,1.50
2017-10-24T14:11:55.610Z,1.80
2017-10-24T14:14:24.008Z,1.60
2017-10-24T14:16:51.511Z,1.93
2017-10-24T14:19:18.993Z,1.50
2017-10-24T14:21:46.510Z,1.60
2017-10-24T14:24:14.017Z,1.70
2017-10-24T14:26:41.523Z,2.10
2017-10-24T14:29:09.015Z,2.40
2017-10-24T14:31:36.907Z,3.10
2017-10-24T14:34:04.404Z,2.50
2017-10-24T14:36:31.903Z,2.63
2017-10-24T14:38:59.797Z,2.50
2017-10-24T14:41:28.131Z,2.30
2017-10-24T14:43:55.620Z,2.47
2017-10-24T14:46:23.129Z,2.90
2017-10-24T14:48:50.627Z,2.83
2017-10-24T14:51:19.005Z,2.40
2017-10-24T14:53:47.481Z,2.03
2017-10-24T14:56:15.425Z,2.47
2017-10-24T14:58:42.911Z,2.42
2017-10-24T15:01:10.812Z,3.00
2017-10-24T15:03:38.307Z,3.43
2017-10-24T15:06:05.819Z,4.07
2017-10-24T15:08:33.298Z,3.00
2017-10-24T15:11:01.816Z,2.97
2017-10-24T15:13:30.701Z,3.22
2017-10-24T15:15:58.204Z,3.90
2017-10-24T15:18:25.698Z,3.07
2017-10-24T15:20:53.204Z,3.10
2017-10-24T15:23:20.687Z,3.40
2017-10-24T15:25:48.190Z,3.47
2017-10-24T15:28:15.683Z,3.67
2017-10-24T15:30:43.212Z,3.65
2017-10-24T15:33:11.108Z,3.13
2017-10-24T15:35:38.619Z,3.30
2017-10-24T15:38:06.135Z,4.50
2017-10-24T15:40:35.575Z,4.07
2017-10-24T15:43:03.063Z,3.80
2017-10-24T15:45:30.976Z,4.87
2017-10-24T15:47:58.459Z,4.18
2017-10-24T15:50:25.971Z,3.80
2017-10-24T15:52:53.467Z,4.10
2017-10-24T15:55:20.979Z,4.20
2017-10-24T15:57:48.855Z,4.37
2017-10-24T16:00:16.861Z,3.45
2017-10-24T16:02:44.338Z,4.27
2017-10-24T16:05:11.864Z,4.15
2017-10-24T16:07:39.905Z,3.40
2017-10-24T16:10:08.207Z,4.13
2017-10-24T16:12:35.691Z,3.53
2017-10-24T16:15:05.162Z,3.92
2017-10-24T16:17:33.620Z,4.00
2017-10-24T16:20:01.143Z,4.22
2017-10-24T16:22:28.631Z,3.70
2017-10-24T16:24:56.506Z,4.20
2017-10-24T16:27:24.399Z,4.43
2017-10-24T16:29:52.823Z,4.63
2017-10-24T16:32:20.692Z,5.47
2017-10-24T16:34:48.180Z,4.63
2017-10-24T16:37:17.504Z,3.37
2017-10-24T16:39:44.996Z,3.43
2017-10-24T16:42:12.495Z,3.80
2017-10-24T16:44:40.007Z,3.92
2017-10-24T16:47:07.492Z,4.47
2017-10-24T16:49:35.396Z,4.37
2017-10-24T16:52:02.893Z,3.63
2017-10-24T16:54:31.403Z,4.13
2017-10-24T16:56:59.288Z,3.80
2017-10-24T16:59:26.799Z,4.10
2017-10-24T17:01:54.294Z,4.20
2017-10-24T17:04:21.808Z,4.35
2017-10-24T17:06:49.307Z,4.35
2017-10-24T17:09:17.226Z,4.40
2017-10-24T17:11:44.713Z,4.10
2017-10-24T17:14:12.219Z,4.47
2017-10-24T17:16:39.728Z,3.80
2017-10-24T17:19:08.157Z,3.65
2017-10-24T17:21:35.666Z,4.00
2017-10-24T17:24:03.551Z,3.85
2017-10-24T17:26:31.583Z,4.22
2017-10-24T17:28:59.097Z,3.90
2017-10-24T17:31:28.577Z,4.67
2017-10-24T17:33:56.491Z,4.05
2017-10-24T17:36:23.983Z,3.92
2017-10-24T17:38:51.491Z,3.63
2017-10-24T17:41:18.983Z,4.70
2017-10-24T17:43:46.495Z,4.23
2017-10-24T17:46:13.987Z,3.80
2017-10-24T17:48:41.492Z,3.70
2017-10-24T17:51:09.388Z,3.40
2017-10-24T17:53:36.960Z,3.58
2017-10-24T17:56:04.479Z,3.47
2017-10-24T17:58:32.418Z,4.37
2017-10-24T18:00:59.911Z,4.65
2017-10-24T18:03:27.895Z,3.50
2017-10-24T18:05:55.418Z,3.67
2017-10-24T18:08:22.953Z,3.77
2017-10-24T18:10:50.472Z,3.83
2017-10-24T18:13:19.993Z,3.72
2017-10-24T18:15:47.512Z,3.37
2017-10-24T18:18:15.418Z,3.78
2017-10-24T18:20:42.927Z,3.47
2017-10-24T18:23:10.466Z,3.90
2017-10-24T18:25:37.986Z,3.50
2017-10-24T18:28:05.523Z,3.47
2017-10-24T18:30:33.427Z,3.65
2017-10-24T18:33:00.924Z,4.45
2017-10-24T18:35:28.520Z,3.75
2017-10-24T18:37:56.021Z,3.60
2017-10-24T18:40:24.436Z,3.77
2017-10-24T18:42:53.360Z,3.70
2017-10-24T18:45:20.889Z,4.55
2017-10-24T18:47:48.853Z,4.20
2017-10-24T18:50:16.463Z,5.12
2017-10-24T18:52:44.014Z,3.90
2017-10-24T18:55:12.521Z,5.12
2017-10-24T18:57:40.046Z,5.00
2017-10-24T19:00:07.552Z,5.30
2017-10-24T19:02:35.067Z,4.78
2017-10-24T19:05:02.586Z,5.50
2017-10-24T19:07:32.089Z,5.15
2017-10-24T19:10:05.686Z,5.18
2017-10-24T19:12:33.206Z,5.28
2017-10-24T19:15:00.716Z,4.85
2017-10-24T19:17:28.891Z,4.70
2017-10-24T19:19:57.325Z,5.30
2017-10-24T19:22:24.852Z,4.60
2017-10-24T19:24:52.363Z,6.25
2017-10-24T19:27:19.893Z,4.70
2017-10-24T19:29:47.412Z,4.70
2017-10-24T19:32:16.362Z,5.25
2017-10-24T19:34:43.883Z,5.40
2017-10-24T19:37:11.404Z,5.90
2017-10-24T19:39:38.940Z,5.97
2017-10-24T19:42:07.766Z,6.10
2017-10-24T19:44:38.320Z,6.40
2017-10-24T19:47:05.835Z,5.75
2017-10-24T19:49:34.290Z,6.22
2017-10-24T19:52:01.805Z,5.70
2017-10-24T19:54:29.330Z,6.10
2017-10-24T19:56:56.865Z,5.87
2017-10-24T19:59:24.366Z,5.43
2017-10-24T20:01:53.555Z,5.93
2017-10-24T20:04:23.027Z,6.03
2017-10-24T20:06:50.578Z,7.05
2017-10-24T20:09:18.097Z,6.00
2017-10-24T20:11:45.694Z,5.80
2017-10-24T20:14:13.204Z,6.35
2017-10-24T20:16:41.110Z,5.32
2017-10-24T20:19:08.620Z,5.60
2017-10-24T20:21:36.169Z,6.32
2017-10-24T20:24:03.689Z,5.60
2017-10-24T20:26:31.258Z,5.80
2017-10-24T20:28:58.764Z,7.47
2017-10-24T20:31:27.260Z,6.53
2017-10-24T20:33:54.778Z,7.45
2017-10-24T20:36:22.309Z,7.30
2017-10-24T20:38:49.807Z,6.93
2017-10-24T20:41:17.332Z,6.78
2017-10-24T20:43:44.855Z,6.95
2017-10-24T20:46:12.350Z,5.90
2017-10-24T20:48:39.878Z,5.68
2017-10-24T20:51:09.316Z,6.05
2017-10-24T20:53:36.802Z,5.10
2017-10-24T20:56:04.399Z,6.40
2017-10-24T20:58:31.916Z,5.77
2017-10-24T21:00:59.474Z,6.17
2017-10-24T21:03:27.039Z,5.13
2017-10-24T21:05:54.867Z,5.03
2017-10-24T21:08:22.359Z,5.07
2017-10-24T21:10:49.875Z,5.27
2017-10-24T21:13:17.399Z,5.50
2017-10-24T21:15:45.328Z,4.70
2017-10-24T21:18:12.816Z,4.47
2017-10-24T21:20:40.731Z,4.20
2017-10-24T21:23:10.229Z,4.90
2017-10-24T21:25:37.747Z,4.45
2017-10-24T21:28:05.671Z,5.05
2017-10-24T21:30:33.184Z,4.27
2017-10-24T21:33:00.894Z,4.50
2017-10-24T21:35:28.480Z,4.60
2017-10-24T21:37:56.018Z,4.20
2017-10-24T21:40:23.512Z,3.75
2017-10-24T21:42:51.438Z,4.15
2017-10-24T21:45:18.954Z,4.50
2017-10-24T21:47:46.871Z,4.05
2017-10-24T21:50:14.408Z,4.37
2017-10-24T21:52:42.883Z,4.10
2017-10-24T21:55:10.431Z,3.80
2017-10-24T21:57:37.939Z,4.63
2017-10-24T22:00:05.476Z,4.87
2017-10-24T22:02:32.997Z,4.10
2017-10-24T22:05:00.584Z,5.00
2017-10-24T22:07:29.925Z,5.07
2017-10-24T22:09:59.388Z,4.97
2017-10-24T22:12:26.919Z,4.57
2017-10-24T22:14:54.458Z,4.87
2017-10-24T22:17:22.929Z,4.67
2017-10-24T22:19:50.527Z,4.20
2017-10-24T22:22:18.041Z,4.07
2017-10-24T22:24:47.531Z,4.50
2017-10-24T22:27:15.049Z,4.82
2017-10-24T22:29:42.623Z,3.80
2017-10-24T22:32:10.127Z,5.40
2017-10-24T22:34:37.650Z,4.47
2017-10-24T22:37:05.150Z,4.10
2017-10-24T22:39:32.651Z,4.50
2017-10-24T22:42:00.188Z,4.73
2017-10-24T22:44:27.764Z,3.80
2017-10-24T22:46:55.275Z,4.47
2017-10-24T22:49:23.765Z,4.30
2017-10-24T22:51:51.256Z,3.50
2017-10-24T22:54:18.796Z,4.60
2017-10-24T22:56:46.708Z,4.78
2017-10-24T22:59:14.243Z,4.47
2017-10-24T23:01:42.553Z,4.50
2017-10-24T23:04:10.979Z,5.32
2017-10-24T23:06:38.899Z,5.03
2017-10-24T23:09:06.423Z,4.50
2017-10-24T23:11:33.947Z,4.72
2017-10-24T23:14:01.494Z,5.40
2017-10-24T23:16:29.965Z,4.75
2017-10-24T23:18:57.534Z,5.18
2017-10-24T23:21:25.076Z,5.30
2017-10-24T23:23:58.608Z,5.30
2017-10-24T23:26:26.128Z,5.30
2017-10-24T23:28:53.967Z,5.12
2017-10-24T23:31:22.417Z,5.23
2017-10-24T23:33:50.009Z,5.37
2017-10-24T23:36:17.976Z,5.40
2017-10-24T23:38:45.882Z,5.50
2017-10-24T23:41:13.392Z,5.10
2017-10-24T23:43:43.253Z,5.93
2017-10-24T23:46:10.743Z,5.50
2017-10-24T23:48:38.244Z,5.10
2017-10-24T23:51:05.725Z,6.03
2017-10-24T23:53:33.237Z,5.53
2017-10-24T23:56:01.150Z,5.60
2017-10-24T23:58:28.667Z,5.78
